sensor_id;sensor_type;location;lat;lon;timestamp;P1;durP1;ratioP1;P2;durP2;ratioP2
14203;SDS011;7185;51.854;6.622;2022-12-07T00:01:54;28.50;;;15.48;;
14203;SDS011;7185;51.854;6.622;2022-12-07T00:04:26;29.83;;;16.33;;
14203;SDS011;7185;51.854;6.622;2022-12-07T00:06:58;30.13;;;15.77;;
14203;SDS011;7185;51.854;6.622;2022-12-07T00:09:31;29.35;;;16.17;;
14203;SDS011;7185;51.854;6.622;2022-12-07T00:12:04;29.08;;;15.48;;
14203;SDS011;7185;51.854;6.622;2022-12-07T00:14:36;28.48;;;15.05;;
14203;SDS011;7185;51.854;6.622;2022-12-07T00:17:07;25.23;;;14.18;;
14203;SDS011;7185;51.854;6.622;2022-12-07T00:19:39;29.38;;;15.88;;
14203;SDS011;7185;51.854;6.622;2022-12-07T00:22:11;29.23;;;15.88;;
14203;SDS011;7185;51.854;6.622;2022-12-07T00:24:44;25.13;;;14.32;;
14203;SDS011;7185;51.854;6.622;2022-12-07T00:27:15;25.20;;;15.35;;
14203;SDS011;7185;51.854;6.622;2022-12-07T00:29:47;28.33;;;14.60;;
14203;SDS011;7185;51.854;6.622;2022-12-07T00:32:18;26.98;;;15.73;;
14203;SDS011;7185;51.854;6.622;2022-12-07T00:34:50;29.77;;;15.35;;
14203;SDS011;7185;51.854;6.622;2022-12-07T00:37:22;30.75;;;15.98;;
14203;SDS011;7185;51.854;6.622;2022-12-07T00:39:55;29.80;;;15.27;;
14203;SDS011;7185;51.854;6.622;2022-12-07T00:42:27;27.83;;;15.10;;
14203;SDS011;7185;51.854;6.622;2022-12-07T00:44:58;29.20;;;15.93;;
14203;SDS011;7185;51.854;6.622;2022-12-07T00:47:30;31.63;;;16.25;;
14203;SDS011;7185;51.854;6.622;2022-12-07T00:50:03;29.30;;;15.43;;
14203;SDS011;7185;51.854;6.622;2022-12-07T00:52:38;29.27;;;16.40;;
14203;SDS011;7185;51.854;6.622;2022-12-07T00:55:11;28.60;;;14.68;;
14203;SDS011;7185;51.854;6.622;2022-12-07T00:57:43;28.10;;;14.85;;
14203;SDS011;7185;51.854;6.622;2022-12-07T01:00:15;28.60;;;15.50;;
14203;SDS011;7185;51.854;6.622;2022-12-07T01:02:46;29.45;;;14.88;;
14203;SDS011;7185;51.854;6.622;2022-12-07T01:05:18;28.73;;;15.23;;
14203;SDS011;7185;51.854;6.622;2022-12-07T01:07:50;28.67;;;14.80;;
14203;SDS011;7185;51.854;6.622;2022-12-07T01:10:23;27.88;;;14.02;;
14203;SDS011;7185;51.854;6.622;2022-12-07T01:12:55;25.63;;;14.68;;
14203;SDS011;7185;51.854;6.622;2022-12-07T01:15:27;29.10;;;14.55;;
14203;SDS011;7185;51.854;6.622;2022-12-07T01:17:58;28.40;;;14.95;;
14203;SDS011;7185;51.854;6.622;2022-12-07T01:20:30;28.58;;;14.60;;
14203;SDS011;7185;51.854;6.622;2022-12-07T01:23:02;23.80;;;14.50;;
14203;SDS011;7185;51.854;6.622;2022-12-07T01:25:35;25.90;;;14.27;;
14203;SDS011;7185;51.854;6.622;2022-12-07T01:28:07;25.20;;;13.93;;
14203;SDS011;7185;51.854;6.622;2022-12-07T01:30:38;24.55;;;14.10;;
14203;SDS011;7185;51.854;6.622;2022-12-07T01:33:10;28.85;;;14.80;;
14203;SDS011;7185;51.854;6.622;2022-12-07T01:35:42;24.27;;;14.68;;
14203;SDS011;7185;51.854;6.622;2022-12-07T01:38:13;27.90;;;14.18;;
14203;SDS011;7185;51.854;6.622;2022-12-07T01:40:46;23.73;;;13.23;;
14203;SDS011;7185;51.854;6.622;2022-12-07T01:43:28;24.27;;;13.32;;
14203;SDS011;7185;51.854;6.622;2022-12-07T01:46:05;26.02;;;14.27;;
14203;SDS011;7185;51.854;6.622;2022-12-07T01:48:38;23.42;;;13.10;;
14203;SDS011;7185;51.854;6.622;2022-12-07T01:51:12;26.90;;;14.48;;
14203;SDS011;7185;51.854;6.622;2022-12-07T01:53:45;24.20;;;13.07;;
14203;SDS011;7185;51.854;6.622;2022-12-07T01:56:20;23.15;;;13.20;;
14203;SDS011;7185;51.854;6.622;2022-12-07T01:58:56;24.17;;;12.85;;
14203;SDS011;7185;51.854;6.622;2022-12-07T02:01:29;24.92;;;13.15;;
14203;SDS011;7185;51.854;6.622;2022-12-07T02:04:01;23.40;;;13.70;;
14203;SDS011;7185;51.854;6.622;2022-12-07T02:06:33;25.85;;;13.23;;
14203;SDS011;7185;51.854;6.622;2022-12-07T02:09:08;22.55;;;12.73;;
14203;SDS011;7185;51.854;6.622;2022-12-07T02:11:41;24.75;;;13.27;;
14203;SDS011;7185;51.854;6.622;2022-12-07T02:14:13;23.17;;;12.98;;
14203;SDS011;7185;51.854;6.622;2022-12-07T02:16:47;27.42;;;13.60;;
14203;SDS011;7185;51.854;6.622;2022-12-07T02:19:34;24.73;;;13.27;;
14203;SDS011;7185;51.854;6.622;2022-12-07T02:22:33;22.85;;;12.50;;
14203;SDS011;7185;51.854;6.622;2022-12-07T02:25:24;22.27;;;12.65;;
14203;SDS011;7185;51.854;6.622;2022-12-07T02:30:51;24.65;;;12.10;;
14203;SDS011;7185;51.854;6.622;2022-12-07T02:33:27;26.98;;;12.45;;
14203;SDS011;7185;51.854;6.622;2022-12-07T02:36:04;24.83;;;13.23;;
14203;SDS011;7185;51.854;6.622;2022-12-07T02:38:40;22.23;;;12.52;;
14203;SDS011;7185;51.854;6.622;2022-12-07T02:41:22;25.08;;;12.35;;
14203;SDS011;7185;51.854;6.622;2022-12-07T02:43:57;22.23;;;12.90;;
14203;SDS011;7185;51.854;6.622;2022-12-07T02:46:34;25.05;;;13.15;;
14203;SDS011;7185;51.854;6.622;2022-12-07T02:49:09;23.88;;;12.80;;
14203;SDS011;7185;51.854;6.622;2022-12-07T02:51:42;21.83;;;12.50;;
14203;SDS011;7185;51.854;6.622;2022-12-07T02:54:17;23.63;;;12.13;;
14203;SDS011;7185;51.854;6.622;2022-12-07T02:56:51;23.88;;;12.15;;
14203;SDS011;7185;51.854;6.622;2022-12-07T02:59:30;23.05;;;12.05;;
14203;SDS011;7185;51.854;6.622;2022-12-07T03:02:15;25.63;;;12.05;;
14203;SDS011;7185;51.854;6.622;2022-12-07T03:04:56;20.27;;;11.48;;
14203;SDS011;7185;51.854;6.622;2022-12-07T03:07:38;23.23;;;12.00;;
14203;SDS011;7185;51.854;6.622;2022-12-07T03:10:18;22.20;;;11.93;;
14203;SDS011;7185;51.854;6.622;2022-12-07T03:12:57;21.35;;;11.75;;
14203;SDS011;7185;51.854;6.622;2022-12-07T03:15:39;22.10;;;10.95;;
14203;SDS011;7185;51.854;6.622;2022-12-07T03:18:16;20.10;;;11.00;;
14203;SDS011;7185;51.854;6.622;2022-12-07T03:20:52;24.65;;;11.43;;
14203;SDS011;7185;51.854;6.622;2022-12-07T03:23:26;25.05;;;10.90;;
14203;SDS011;7185;51.854;6.622;2022-12-07T03:26:00;22.33;;;11.63;;
14203;SDS011;7185;51.854;6.622;2022-12-07T03:28:35;20.35;;;10.88;;
14203;SDS011;7185;51.854;6.622;2022-12-07T03:31:11;20.25;;;10.98;;
14203;SDS011;7185;51.854;6.622;2022-12-07T03:33:49;24.90;;;11.43;;
14203;SDS011;7185;51.854;6.622;2022-12-07T03:36:29;23.25;;;11.70;;
14203;SDS011;7185;51.854;6.622;2022-12-07T03:39:09;22.92;;;11.60;;
14203;SDS011;7185;51.854;6.622;2022-12-07T03:41:47;23.40;;;11.23;;
14203;SDS011;7185;51.854;6.622;2022-12-07T03:44:20;23.13;;;12.02;;
14203;SDS011;7185;51.854;6.622;2022-12-07T03:46:56;23.40;;;11.95;;
14203;SDS011;7185;51.854;6.622;2022-12-07T03:49:39;23.30;;;11.65;;
14203;SDS011;7185;51.854;6.622;2022-12-07T03:52:16;28.83;;;12.50;;
14203;SDS011;7185;51.854;6.622;2022-12-07T03:54:56;20.98;;;10.95;;
14203;SDS011;7185;51.854;6.622;2022-12-07T03:57:31;25.05;;;12.43;;
14203;SDS011;7185;51.854;6.622;2022-12-07T04:00:05;22.55;;;11.27;;
14203;SDS011;7185;51.854;6.622;2022-12-07T04:02:38;20.15;;;11.45;;
14203;SDS011;7185;51.854;6.622;2022-12-07T04:05:12;29.08;;;13.27;;
14203;SDS011;7185;51.854;6.622;2022-12-07T04:07:44;23.48;;;11.77;;
14203;SDS011;7185;51.854;6.622;2022-12-07T04:10:16;22.48;;;11.95;;
14203;SDS011;7185;51.854;6.622;2022-12-07T04:12:50;24.33;;;12.68;;
14203;SDS011;7185;51.854;6.622;2022-12-07T04:15:22;25.45;;;13.68;;
14203;SDS011;7185;51.854;6.622;2022-12-07T04:17:54;28.58;;;13.85;;
14203;SDS011;7185;51.854;6.622;2022-12-07T04:20:27;24.42;;;12.77;;
14203;SDS011;7185;51.854;6.622;2022-12-07T04:22:59;20.75;;;12.10;;
14203;SDS011;7185;51.854;6.622;2022-12-07T04:25:30;24.73;;;12.50;;
14203;SDS011;7185;51.854;6.622;2022-12-07T04:28:02;31.00;;;13.10;;
14203;SDS011;7185;51.854;6.622;2022-12-07T04:30:36;23.50;;;13.27;;
14203;SDS011;7185;51.854;6.622;2022-12-07T04:33:08;23.15;;;12.98;;
14203;SDS011;7185;51.854;6.622;2022-12-07T04:35:41;22.73;;;13.05;;
14203;SDS011;7185;51.854;6.622;2022-12-07T04:38:13;26.27;;;13.25;;
14203;SDS011;7185;51.854;6.622;2022-12-07T04:40:45;20.17;;;11.60;;
14203;SDS011;7185;51.854;6.622;2022-12-07T04:43:17;21.08;;;11.73;;
14203;SDS011;7185;51.854;6.622;2022-12-07T04:45:50;21.67;;;11.80;;
14203;SDS011;7185;51.854;6.622;2022-12-07T04:48:22;25.42;;;12.63;;
14203;SDS011;7185;51.854;6.622;2022-12-07T04:50:55;23.35;;;11.35;;
14203;SDS011;7185;51.854;6.622;2022-12-07T04:53:27;28.58;;;11.65;;
14203;SDS011;7185;51.854;6.622;2022-12-07T04:55:58;23.30;;;11.25;;
14203;SDS011;7185;51.854;6.622;2022-12-07T04:58:31;21.25;;;11.60;;
14203;SDS011;7185;51.854;6.622;2022-12-07T05:01:02;23.30;;;10.82;;
14203;SDS011;7185;51.854;6.622;2022-12-07T05:03:35;22.42;;;10.63;;
14203;SDS011;7185;51.854;6.622;2022-12-07T05:06:08;17.88;;;9.65;;
14203;SDS011;7185;51.854;6.622;2022-12-07T05:08:41;17.23;;;9.18;;
14203;SDS011;7185;51.854;6.622;2022-12-07T05:11:14;18.65;;;9.48;;
14203;SDS011;7185;51.854;6.622;2022-12-07T05:14:10;17.70;;;9.27;;
14203;SDS011;7185;51.854;6.622;2022-12-07T05:16:44;23.20;;;9.40;;
14203;SDS011;7185;51.854;6.622;2022-12-07T05:19:17;23.33;;;10.02;;
14203;SDS011;7185;51.854;6.622;2022-12-07T05:21:51;19.15;;;9.60;;
14203;SDS011;7185;51.854;6.622;2022-12-07T05:24:25;16.35;;;9.40;;
14203;SDS011;7185;51.854;6.622;2022-12-07T05:26:56;19.70;;;9.30;;
14203;SDS011;7185;51.854;6.622;2022-12-07T05:29:34;16.58;;;9.55;;
14203;SDS011;7185;51.854;6.622;2022-12-07T05:32:09;19.02;;;9.35;;
14203;SDS011;7185;51.854;6.622;2022-12-07T05:34:40;18.58;;;8.57;;
14203;SDS011;7185;51.854;6.622;2022-12-07T05:37:13;18.17;;;8.77;;
14203;SDS011;7185;51.854;6.622;2022-12-07T05:39:45;16.08;;;8.73;;
14203;SDS011;7185;51.854;6.622;2022-12-07T05:42:17;18.00;;;8.75;;
14203;SDS011;7185;51.854;6.622;2022-12-07T05:44:51;16.95;;;8.63;;
14203;SDS011;7185;51.854;6.622;2022-12-07T05:47:39;18.13;;;8.55;;
14203;SDS011;7185;51.854;6.622;2022-12-07T05:50:20;17.30;;;7.90;;
14203;SDS011;7185;51.854;6.622;2022-12-07T05:52:56;14.98;;;8.00;;
14203;SDS011;7185;51.854;6.622;2022-12-07T05:55:27;17.27;;;8.07;;
14203;SDS011;7185;51.854;6.622;2022-12-07T05:58:02;20.02;;;8.40;;
14203;SDS011;7185;51.854;6.622;2022-12-07T06:00:53;13.45;;;7.57;;
14203;SDS011;7185;51.854;6.622;2022-12-07T06:03:25;14.48;;;8.90;;
14203;SDS011;7185;51.854;6.622;2022-12-07T06:05:57;21.33;;;8.18;;
14203;SDS011;7185;51.854;6.622;2022-12-07T06:08:30;18.17;;;8.50;;
14203;SDS011;7185;51.854;6.622;2022-12-07T06:11:01;17.85;;;8.25;;
14203;SDS011;7185;51.854;6.622;2022-12-07T06:13:51;17.23;;;8.52;;
14203;SDS011;7185;51.854;6.622;2022-12-07T06:16:22;15.13;;;8.82;;
14203;SDS011;7185;51.854;6.622;2022-12-07T06:18:54;14.52;;;8.00;;
14203;SDS011;7185;51.854;6.622;2022-12-07T06:21:26;17.98;;;8.20;;
14203;SDS011;7185;51.854;6.622;2022-12-07T06:23:58;15.55;;;7.88;;
14203;SDS011;7185;51.854;6.622;2022-12-07T06:26:30;13.35;;;7.85;;
14203;SDS011;7185;51.854;6.622;2022-12-07T06:29:02;20.45;;;8.02;;
14203;SDS011;7185;51.854;6.622;2022-12-07T06:31:33;15.30;;;8.15;;
14203;SDS011;7185;51.854;6.622;2022-12-07T06:34:06;17.73;;;8.43;;
14203;SDS011;7185;51.854;6.622;2022-12-07T06:36:40;18.52;;;8.82;;
14203;SDS011;7185;51.854;6.622;2022-12-07T06:39:13;16.70;;;9.20;;
14203;SDS011;7185;51.854;6.622;2022-12-07T06:41:45;17.98;;;8.90;;
14203;SDS011;7185;51.854;6.622;2022-12-07T06:44:16;18.13;;;9.68;;
14203;SDS011;7185;51.854;6.622;2022-12-07T06:46:48;17.13;;;9.98;;
14203;SDS011;7185;51.854;6.622;2022-12-07T06:49:20;23.70;;;10.30;;
14203;SDS011;7185;51.854;6.622;2022-12-07T06:51:52;17.50;;;9.63;;
14203;SDS011;7185;51.854;6.622;2022-12-07T06:54:25;20.95;;;9.50;;
14203;SDS011;7185;51.854;6.622;2022-12-07T06:56:57;19.25;;;9.82;;
14203;SDS011;7185;51.854;6.622;2022-12-07T06:59:29;19.92;;;9.55;;
14203;SDS011;7185;51.854;6.622;2022-12-07T07:02:00;18.73;;;9.30;;
14203;SDS011;7185;51.854;6.622;2022-12-07T07:04:32;19.60;;;9.68;;
14203;SDS011;7185;51.854;6.622;2022-12-07T07:07:04;18.05;;;9.90;;
14203;SDS011;7185;51.854;6.622;2022-12-07T07:09:36;18.50;;;9.82;;
14203;SDS011;7185;51.854;6.622;2022-12-07T07:12:08;18.40;;;9.55;;
14203;SDS011;7185;51.854;6.622;2022-12-07T07:14:40;23.05;;;9.38;;
14203;SDS011;7185;51.854;6.622;2022-12-07T07:17:13;18.45;;;8.65;;
14203;SDS011;7185;51.854;6.622;2022-12-07T07:19:44;18.25;;;9.35;;
14203;SDS011;7185;51.854;6.622;2022-12-07T07:22:16;24.27;;;9.65;;
14203;SDS011;7185;51.854;6.622;2022-12-07T07:24:49;18.95;;;9.02;;
14203;SDS011;7185;51.854;6.622;2022-12-07T07:27:20;16.27;;;8.75;;
14203;SDS011;7185;51.854;6.622;2022-12-07T07:29:52;18.65;;;9.65;;
14203;SDS011;7185;51.854;6.622;2022-12-07T07:32:23;15.43;;;8.38;;
14203;SDS011;7185;51.854;6.622;2022-12-07T07:34:55;18.83;;;9.35;;
14203;SDS011;7185;51.854;6.622;2022-12-07T07:37:27;20.63;;;8.45;;
14203;SDS011;7185;51.854;6.622;2022-12-07T07:40:00;17.80;;;9.00;;
14203;SDS011;7185;51.854;6.622;2022-12-07T07:42:31;17.20;;;8.70;;
14203;SDS011;7185;51.854;6.622;2022-12-07T07:45:03;18.42;;;8.85;;
14203;SDS011;7185;51.854;6.622;2022-12-07T07:47:35;13.00;;;8.23;;
14203;SDS011;7185;51.854;6.622;2022-12-07T07:50:07;16.60;;;8.65;;
14203;SDS011;7185;51.854;6.622;2022-12-07T07:52:39;19.95;;;8.50;;
14203;SDS011;7185;51.854;6.622;2022-12-07T07:55:12;20.38;;;9.45;;
14203;SDS011;7185;51.854;6.622;2022-12-07T07:57:44;16.42;;;8.30;;
14203;SDS011;7185;51.854;6.622;2022-12-07T08:00:16;17.20;;;8.55;;
14203;SDS011;7185;51.854;6.622;2022-12-07T08:02:48;17.55;;;9.60;;
14203;SDS011;7185;51.854;6.622;2022-12-07T08:05:19;17.63;;;8.52;;
14203;SDS011;7185;51.854;6.622;2022-12-07T08:07:51;18.17;;;8.15;;
14203;SDS011;7185;51.854;6.622;2022-12-07T08:10:24;17.77;;;9.35;;
14203;SDS011;7185;51.854;6.622;2022-12-07T08:12:55;17.70;;;8.00;;
14203;SDS011;7185;51.854;6.622;2022-12-07T08:18:17;18.55;;;8.27;;
14203;SDS011;7185;51.854;6.622;2022-12-07T08:20:48;19.08;;;8.25;;
14203;SDS011;7185;51.854;6.622;2022-12-07T08:23:20;18.17;;;8.60;;
14203;SDS011;7185;51.854;6.622;2022-12-07T08:25:53;17.20;;;8.50;;
14203;SDS011;7185;51.854;6.622;2022-12-07T08:28:25;21.23;;;9.05;;
14203;SDS011;7185;51.854;6.622;2022-12-07T08:30:58;18.13;;;8.50;;
14203;SDS011;7185;51.854;6.622;2022-12-07T08:33:30;22.52;;;10.05;;
14203;SDS011;7185;51.854;6.622;2022-12-07T08:36:03;18.02;;;9.60;;
14203;SDS011;7185;51.854;6.622;2022-12-07T08:38:36;16.77;;;9.20;;
14203;SDS011;7185;51.854;6.622;2022-12-07T08:41:10;15.75;;;8.90;;
14203;SDS011;7185;51.854;6.622;2022-12-07T08:43:42;17.30;;;9.50;;
14203;SDS011;7185;51.854;6.622;2022-12-07T08:46:16;17.08;;;9.05;;
14203;SDS011;7185;51.854;6.622;2022-12-07T08:48:51;15.40;;;8.52;;
14203;SDS011;7185;51.854;6.622;2022-12-07T08:51:26;13.93;;;8.23;;
14203;SDS011;7185;51.854;6.622;2022-12-07T08:53:58;14.98;;;8.00;;
14203;SDS011;7185;51.854;6.622;2022-12-07T08:56:33;13.32;;;7.95;;
14203;SDS011;7185;51.854;6.622;2022-12-07T08:59:06;18.48;;;8.23;;
14203;SDS011;7185;51.854;6.622;2022-12-07T09:01:38;13.02;;;7.30;;
14203;SDS011;7185;51.854;6.622;2022-12-07T09:04:09;18.05;;;7.80;;
14203;SDS011;7185;51.854;6.622;2022-12-07T09:06:41;17.13;;;6.68;;
14203;SDS011;7185;51.854;6.622;2022-12-07T09:09:13;17.92;;;7.50;;
14203;SDS011;7185;51.854;6.622;2022-12-07T09:11:47;16.38;;;7.18;;
14203;SDS011;7185;51.854;6.622;2022-12-07T09:14:18;16.67;;;8.15;;
14203;SDS011;7185;51.854;6.622;2022-12-07T09:16:50;10.95;;;6.47;;
14203;SDS011;7185;51.854;6.622;2022-12-07T09:19:21;16.10;;;6.50;;
14203;SDS011;7185;51.854;6.622;2022-12-07T09:21:53;11.98;;;5.60;;
14203;SDS011;7185;51.854;6.622;2022-12-07T09:24:24;8.15;;;4.53;;
14203;SDS011;7185;51.854;6.622;2022-12-07T09:26:57;8.98;;;4.15;;
14203;SDS011;7185;51.854;6.622;2022-12-07T09:29:29;10.40;;;4.68;;
14203;SDS011;7185;51.854;6.622;2022-12-07T09:32:01;10.02;;;3.47;;
14203;SDS011;7185;51.854;6.622;2022-12-07T09:34:32;9.60;;;2.60;;
14203;SDS011;7185;51.854;6.622;2022-12-07T09:37:04;8.63;;;3.53;;
14203;SDS011;7185;51.854;6.622;2022-12-07T09:39:38;9.32;;;2.90;;
14203;SDS011;7185;51.854;6.622;2022-12-07T09:42:12;6.93;;;2.60;;
14203;SDS011;7185;51.854;6.622;2022-12-07T09:44:57;12.87;;;3.00;;
14203;SDS011;7185;51.854;6.622;2022-12-07T09:47:30;8.23;;;2.72;;
14203;SDS011;7185;51.854;6.622;2022-12-07T09:50:05;7.50;;;2.60;;
14203;SDS011;7185;51.854;6.622;2022-12-07T09:52:43;7.25;;;2.78;;
14203;SDS011;7185;51.854;6.622;2022-12-07T09:55:19;7.78;;;3.20;;
14203;SDS011;7185;51.854;6.622;2022-12-07T09:57:58;7.05;;;2.30;;
14203;SDS011;7185;51.854;6.622;2022-12-07T10:00:29;7.13;;;2.58;;
14203;SDS011;7185;51.854;6.622;2022-12-07T10:03:01;10.18;;;2.92;;
14203;SDS011;7185;51.854;6.622;2022-12-07T10:05:34;10.00;;;2.63;;
14203;SDS011;7185;51.854;6.622;2022-12-07T10:08:08;9.13;;;2.92;;
14203;SDS011;7185;51.854;6.622;2022-12-07T10:10:42;7.78;;;2.22;;
14203;SDS011;7185;51.854;6.622;2022-12-07T10:13:18;4.88;;;2.90;;
14203;SDS011;7185;51.854;6.622;2022-12-07T10:15:52;8.25;;;2.88;;
14203;SDS011;7185;51.854;6.622;2022-12-07T10:18:26;7.03;;;2.70;;
14203;SDS011;7185;51.854;6.622;2022-12-07T10:21:00;7.55;;;2.65;;
14203;SDS011;7185;51.854;6.622;2022-12-07T10:23:38;7.13;;;2.53;;
14203;SDS011;7185;51.854;6.622;2022-12-07T10:29:14;6.10;;;1.85;;
14203;SDS011;7185;51.854;6.622;2022-12-07T10:31:49;7.28;;;2.25;;
14203;SDS011;7185;51.854;6.622;2022-12-07T10:34:27;10.00;;;2.80;;
14203;SDS011;7185;51.854;6.622;2022-12-07T10:37:12;8.82;;;2.00;;
14203;SDS011;7185;51.854;6.622;2022-12-07T10:39:47;5.60;;;2.33;;
14203;SDS011;7185;51.854;6.622;2022-12-07T10:42:20;6.80;;;1.90;;
14203;SDS011;7185;51.854;6.622;2022-12-07T10:45:07;8.20;;;2.28;;
14203;SDS011;7185;51.854;6.622;2022-12-07T10:47:42;9.77;;;1.90;;
14203;SDS011;7185;51.854;6.622;2022-12-07T10:50:24;7.95;;;1.70;;
14203;SDS011;7185;51.854;6.622;2022-12-07T10:53:18;6.55;;;1.92;;
14203;SDS011;7185;51.854;6.622;2022-12-07T10:56:09;11.65;;;2.08;;
14203;SDS011;7185;51.854;6.622;2022-12-07T10:58:56;7.43;;;2.33;;
14203;SDS011;7185;51.854;6.622;2022-12-07T11:01:43;4.35;;;1.67;;
14203;SDS011;7185;51.854;6.622;2022-12-07T11:04:21;5.28;;;1.63;;
14203;SDS011;7185;51.854;6.622;2022-12-07T11:07:02;5.78;;;1.75;;
14203;SDS011;7185;51.854;6.622;2022-12-07T11:15:41;4.90;;;1.63;;
14203;SDS011;7185;51.854;6.622;2022-12-07T11:18:28;6.40;;;1.75;;
14203;SDS011;7185;51.854;6.622;2022-12-07T11:21:06;5.70;;;1.52;;
14203;SDS011;7185;51.854;6.622;2022-12-07T11:23:45;6.30;;;1.60;;
14203;SDS011;7185;51.854;6.622;2022-12-07T11:26:23;9.43;;;1.73;;
14203;SDS011;7185;51.854;6.622;2022-12-07T11:29:09;6.18;;;1.95;;
14203;SDS011;7185;51.854;6.622;2022-12-07T11:31:55;5.85;;;1.90;;
14203;SDS011;7185;51.854;6.622;2022-12-07T11:34:39;5.13;;;2.20;;
14203;SDS011;7185;51.854;6.622;2022-12-07T11:37:21;8.90;;;2.28;;
14203;SDS011;7185;51.854;6.622;2022-12-07T11:40:00;6.78;;;2.05;;
14203;SDS011;7185;51.854;6.622;2022-12-07T11:42:37;6.82;;;2.25;;
14203;SDS011;7185;51.854;6.622;2022-12-07T11:45:14;6.30;;;2.10;;
14203;SDS011;7185;51.854;6.622;2022-12-07T11:47:51;4.53;;;1.85;;
14203;SDS011;7185;51.854;6.622;2022-12-07T11:50:33;5.97;;;2.08;;
14203;SDS011;7185;51.854;6.622;2022-12-07T11:53:10;7.88;;;2.00;;
14203;SDS011;7185;51.854;6.622;2022-12-07T11:55:49;8.80;;;2.30;;
14203;SDS011;7185;51.854;6.622;2022-12-07T11:58:38;9.82;;;2.40;;
14203;SDS011;7185;51.854;6.622;2022-12-07T12:01:29;7.00;;;2.03;;
14203;SDS011;7185;51.854;6.622;2022-12-07T12:04:18;6.95;;;2.50;;
14203;SDS011;7185;51.854;6.622;2022-12-07T12:06:57;6.93;;;2.20;;
14203;SDS011;7185;51.854;6.622;2022-12-07T12:09:31;9.77;;;1.88;;
14203;SDS011;7185;51.854;6.622;2022-12-07T12:12:14;7.18;;;2.30;;
14203;SDS011;7185;51.854;6.622;2022-12-07T12:14:59;4.07;;;1.85;;
14203;SDS011;7185;51.854;6.622;2022-12-07T12:20:46;8.40;;;2.58;;
14203;SDS011;7185;51.854;6.622;2022-12-07T12:23:26;8.00;;;2.20;;
14203;SDS011;7185;51.854;6.622;2022-12-07T12:26:06;11.77;;;2.58;;
14203;SDS011;7185;51.854;6.622;2022-12-07T12:28:40;10.73;;;2.92;;
14203;SDS011;7185;51.854;6.622;2022-12-07T12:31:34;9.02;;;2.58;;
14203;SDS011;7185;51.854;6.622;2022-12-07T12:37:11;10.50;;;3.15;;
14203;SDS011;7185;51.854;6.622;2022-12-07T12:46:36;8.48;;;2.42;;
14203;SDS011;7185;51.854;6.622;2022-12-07T12:58:42;9.05;;;2.22;;
14203;SDS011;7185;51.854;6.622;2022-12-07T13:04:21;5.70;;;1.88;;
14203;SDS011;7185;51.854;6.622;2022-12-07T13:06:56;4.93;;;2.28;;
14203;SDS011;7185;51.854;6.622;2022-12-07T13:09:28;5.60;;;2.05;;
14203;SDS011;7185;51.854;6.622;2022-12-07T13:12:03;6.55;;;2.10;;
14203;SDS011;7185;51.854;6.622;2022-12-07T13:14:53;8.23;;;2.25;;
14203;SDS011;7185;51.854;6.622;2022-12-07T13:20:48;10.80;;;3.70;;
14203;SDS011;7185;51.854;6.622;2022-12-07T13:23:25;7.90;;;2.40;;
14203;SDS011;7185;51.854;6.622;2022-12-07T13:26:12;14.20;;;3.05;;
14203;SDS011;7185;51.854;6.622;2022-12-07T13:28:46;8.98;;;3.05;;
14203;SDS011;7185;51.854;6.622;2022-12-07T13:31:32;5.82;;;2.80;;
14203;SDS011;7185;51.854;6.622;2022-12-07T13:37:05;6.15;;;2.63;;
14203;SDS011;7185;51.854;6.622;2022-12-07T13:39:44;7.57;;;2.83;;
14203;SDS011;7185;51.854;6.622;2022-12-07T13:42:19;9.48;;;2.30;;
14203;SDS011;7185;51.854;6.622;2022-12-07T13:44:56;9.65;;;2.67;;
14203;SDS011;7185;51.854;6.622;2022-12-07T13:47:31;8.57;;;2.65;;
14203;SDS011;7185;51.854;6.622;2022-12-07T13:50:22;7.35;;;2.38;;
14203;SDS011;7185;51.854;6.622;2022-12-07T13:55:27;7.15;;;2.03;;
14203;SDS011;7185;51.854;6.622;2022-12-07T13:58:00;9.43;;;2.55;;
14203;SDS011;7185;51.854;6.622;2022-12-07T14:00:31;8.45;;;2.78;;
14203;SDS011;7185;51.854;6.622;2022-12-07T14:03:04;11.60;;;2.40;;
14203;SDS011;7185;51.854;6.622;2022-12-07T14:06:13;8.90;;;2.67;;
14203;SDS011;7185;51.854;6.622;2022-12-07T14:08:46;7.93;;;2.40;;
14203;SDS011;7185;51.854;6.622;2022-12-07T14:11:18;8.63;;;2.60;;
14203;SDS011;7185;51.854;6.622;2022-12-07T14:13:55;7.72;;;1.90;;
14203;SDS011;7185;51.854;6.622;2022-12-07T14:16:29;8.73;;;2.30;;
14203;SDS011;7185;51.854;6.622;2022-12-07T14:19:03;9.77;;;2.10;;
14203;SDS011;7185;51.854;6.622;2022-12-07T14:21:37;6.20;;;2.38;;
14203;SDS011;7185;51.854;6.622;2022-12-07T14:24:10;6.55;;;2.35;;
14203;SDS011;7185;51.854;6.622;2022-12-07T14:26:46;9.18;;;2.13;;
14203;SDS011;7185;51.854;6.622;2022-12-07T14:29:20;10.50;;;2.25;;
14203;SDS011;7185;51.854;6.622;2022-12-07T14:31:53;10.52;;;2.17;;
14203;SDS011;7185;51.854;6.622;2022-12-07T14:34:25;4.65;;;2.28;;
14203;SDS011;7185;51.854;6.622;2022-12-07T14:36:58;6.40;;;2.45;;
14203;SDS011;7185;51.854;6.622;2022-12-07T14:39:29;10.73;;;2.42;;
14203;SDS011;7185;51.854;6.622;2022-12-07T14:42:01;8.82;;;2.40;;
14203;SDS011;7185;51.854;6.622;2022-12-07T14:44:33;10.00;;;2.60;;
14203;SDS011;7185;51.854;6.622;2022-12-07T14:47:04;6.40;;;2.90;;
14203;SDS011;7185;51.854;6.622;2022-12-07T14:49:36;8.10;;;2.42;;
14203;SDS011;7185;51.854;6.622;2022-12-07T14:52:11;8.00;;;2.35;;
14203;SDS011;7185;51.854;6.622;2022-12-07T14:54:46;7.28;;;2.58;;
14203;SDS011;7185;51.854;6.622;2022-12-07T14:57:17;8.02;;;2.90;;
14203;SDS011;7185;51.854;6.622;2022-12-07T14:59:49;7.45;;;2.30;;
14203;SDS011;7185;51.854;6.622;2022-12-07T15:02:20;8.60;;;2.63;;
14203;SDS011;7185;51.854;6.622;2022-12-07T15:04:52;12.18;;;3.30;;
14203;SDS011;7185;51.854;6.622;2022-12-07T15:07:25;10.50;;;3.20;;
14203;SDS011;7185;51.854;6.622;2022-12-07T15:09:57;11.88;;;2.80;;
14203;SDS011;7185;51.854;6.622;2022-12-07T15:12:28;6.68;;;3.10;;
14203;SDS011;7185;51.854;6.622;2022-12-07T15:15:00;9.70;;;2.90;;
14203;SDS011;7185;51.854;6.622;2022-12-07T15:17:32;10.35;;;3.00;;
14203;SDS011;7185;51.854;6.622;2022-12-07T15:20:04;9.00;;;3.03;;
14203;SDS011;7185;51.854;6.622;2022-12-07T15:22:40;11.68;;;3.72;;
14203;SDS011;7185;51.854;6.622;2022-12-07T15:25:12;10.90;;;2.63;;
14203;SDS011;7185;51.854;6.622;2022-12-07T15:27:45;6.95;;;2.60;;
14203;SDS011;7185;51.854;6.622;2022-12-07T15:30:16;8.93;;;2.78;;
14203;SDS011;7185;51.854;6.622;2022-12-07T15:32:48;6.00;;;2.63;;
14203;SDS011;7185;51.854;6.622;2022-12-07T15:35:20;7.50;;;2.85;;
14203;SDS011;7185;51.854;6.622;2022-12-07T15:37:53;7.50;;;2.45;;
14203;SDS011;7185;51.854;6.622;2022-12-07T15:40:25;10.85;;;2.65;;
14203;SDS011;7185;51.854;6.622;2022-12-07T15:42:57;3.83;;;1.80;;
14203;SDS011;7185;51.854;6.622;2022-12-07T15:45:28;6.22;;;1.50;;
14203;SDS011;7185;51.854;6.622;2022-12-07T15:47:59;3.35;;;1.30;;
14203;SDS011;7185;51.854;6.622;2022-12-07T15:50:31;5.72;;;1.95;;
14203;SDS011;7185;51.854;6.622;2022-12-07T15:53:04;4.43;;;1.30;;
14203;SDS011;7185;51.854;6.622;2022-12-07T15:55:35;2.72;;;1.05;;
14203;SDS011;7185;51.854;6.622;2022-12-07T15:58:09;8.50;;;1.40;;
14203;SDS011;7185;51.854;6.622;2022-12-07T16:00:41;2.70;;;0.90;;
14203;SDS011;7185;51.854;6.622;2022-12-07T16:03:13;3.25;;;1.20;;
14203;SDS011;7185;51.854;6.622;2022-12-07T16:05:48;2.35;;;1.05;;
14203;SDS011;7185;51.854;6.622;2022-12-07T16:08:21;4.07;;;1.55;;
14203;SDS011;7185;51.854;6.622;2022-12-07T16:10:52;6.75;;;1.75;;
14203;SDS011;7185;51.854;6.622;2022-12-07T16:13:24;5.03;;;1.85;;
14203;SDS011;7185;51.854;6.622;2022-12-07T16:15:56;7.13;;;2.45;;
14203;SDS011;7185;51.854;6.622;2022-12-07T16:18:27;4.57;;;2.28;;
14203;SDS011;7185;51.854;6.622;2022-12-07T16:20:59;4.88;;;2.20;;
14203;SDS011;7185;51.854;6.622;2022-12-07T16:23:32;3.90;;;2.30;;